sensor_id;sensor_type;location;lat;lon;timestamp;temperature;humidity
83405;SHT30;73331;48.168;20.776;2024-02-14T00:00:06;1.84;78.78
83405;SHT30;73331;48.168;20.776;2024-02-14T00:01:40;1.73;79.05
83405;SHT30;73331;48.168;20.776;2024-02-14T00:03:11;1.74;78.98
83405;SHT30;73331;48.168;20.776;2024-02-14T00:04:41;1.68;79.34
83405;SHT30;73331;48.168;20.776;2024-02-14T00:06:12;1.70;79.09
83405;SHT30;73331;48.168;20.776;2024-02-14T00:07:43;2.06;77.68
83405;SHT30;73331;48.168;20.776;2024-02-14T00:09:14;1.87;78.23
83405;SHT30;73331;48.168;20.776;2024-02-14T00:10:44;1.86;78.52
83405;SHT30;73331;48.168;20.776;2024-02-14T00:12:15;1.83;78.86
83405;SHT30;73331;48.168;20.776;2024-02-14T00:13:45;2.01;78.73
83405;SHT30;73331;48.168;20.776;2024-02-14T00:15:16;2.18;76.78
83405;SHT30;73331;48.168;20.776;2024-02-14T00:16:46;2.01;77.85
83405;SHT30;73331;48.168;20.776;2024-02-14T00:18:17;1.88;78.62
83405;SHT30;73331;48.168;20.776;2024-02-14T00:19:49;1.86;78.73
83405;SHT30;73331;48.168;20.776;2024-02-14T00:21:20;1.90;78.45
83405;SHT30;73331;48.168;20.776;2024-02-14T00:22:50;1.87;78.43
83405;SHT30;73331;48.168;20.776;2024-02-14T00:24:21;1.73;78.64
83405;SHT30;73331;48.168;20.776;2024-02-14T00:25:52;1.77;78.77
83405;SHT30;73331;48.168;20.776;2024-02-14T00:27:23;1.78;78.45
83405;SHT30;73331;48.168;20.776;2024-02-14T00:28:54;1.78;78.90
83405;SHT30;73331;48.168;20.776;2024-02-14T00:30:25;1.73;78.66
83405;SHT30;73331;48.168;20.776;2024-02-14T00:31:55;1.64;78.88
83405;SHT30;73331;48.168;20.776;2024-02-14T00:33:26;1.59;79.57
83405;SHT30;73331;48.168;20.776;2024-02-14T00:34:56;1.57;79.80
83405;SHT30;73331;48.168;20.776;2024-02-14T00:36:27;1.68;79.69
83405;SHT30;73331;48.168;20.776;2024-02-14T00:37:58;1.56;79.66
83405;SHT30;73331;48.168;20.776;2024-02-14T00:39:28;1.36;79.74
83405;SHT30;73331;48.168;20.776;2024-02-14T00:40:59;1.33;80.04
83405;SHT30;73331;48.168;20.776;2024-02-14T00:42:29;1.28;80.24
83405;SHT30;73331;48.168;20.776;2024-02-14T00:44:00;1.26;80.31
83405;SHT30;73331;48.168;20.776;2024-02-14T00:45:30;1.29;79.95
83405;SHT30;73331;48.168;20.776;2024-02-14T00:47:00;1.39;79.52
83405;SHT30;73331;48.168;20.776;2024-02-14T00:48:32;1.26;79.86
83405;SHT30;73331;48.168;20.776;2024-02-14T00:50:03;1.13;80.34
83405;SHT30;73331;48.168;20.776;2024-02-14T00:51:34;0.96;80.75
83405;SHT30;73331;48.168;20.776;2024-02-14T00:53:05;1.56;79.60
83405;SHT30;73331;48.168;20.776;2024-02-14T00:54:35;1.74;78.11
83405;SHT30;73331;48.168;20.776;2024-02-14T00:56:06;1.18;79.98
83405;SHT30;73331;48.168;20.776;2024-02-14T00:57:37;1.29;80.32
83405;SHT30;73331;48.168;20.776;2024-02-14T00:59:07;1.01;80.64
83405;SHT30;73331;48.168;20.776;2024-02-14T01:00:38;0.92;81.83
83405;SHT30;73331;48.168;20.776;2024-02-14T01:02:08;0.81;82.21
83405;SHT30;73331;48.168;20.776;2024-02-14T01:03:39;0.75;82.42
83405;SHT30;73331;48.168;20.776;2024-02-14T01:05:10;0.77;82.73
83405;SHT30;73331;48.168;20.776;2024-02-14T01:06:40;0.74;82.58
83405;SHT30;73331;48.168;20.776;2024-02-14T01:08:11;0.68;82.86
83405;SHT30;73331;48.168;20.776;2024-02-14T01:09:43;0.67;83.16
83405;SHT30;73331;48.168;20.776;2024-02-14T01:11:13;0.74;83.10
83405;SHT30;73331;48.168;20.776;2024-02-14T01:12:44;0.99;81.53
83405;SHT30;73331;48.168;20.776;2024-02-14T01:14:14;1.05;80.92
83405;SHT30;73331;48.168;20.776;2024-02-14T01:15:45;0.95;81.23
83405;SHT30;73331;48.168;20.776;2024-02-14T01:17:17;1.21;80.98
83405;SHT30;73331;48.168;20.776;2024-02-14T01:18:47;1.23;79.48
83405;SHT30;73331;48.168;20.776;2024-02-14T01:20:18;1.03;80.82
83405;SHT30;73331;48.168;20.776;2024-02-14T01:21:48;0.82;81.50
83405;SHT30;73331;48.168;20.776;2024-02-14T01:23:19;0.65;82.29
83405;SHT30;73331;48.168;20.776;2024-02-14T01:24:50;0.53;82.79
83405;SHT30;73331;48.168;20.776;2024-02-14T01:26:21;0.46;82.76
83405;SHT30;73331;48.168;20.776;2024-02-14T01:27:51;0.43;82.85
83405;SHT30;73331;48.168;20.776;2024-02-14T01:29:22;0.44;82.64
83405;SHT30;73331;48.168;20.776;2024-02-14T01:30:53;0.98;80.96
83405;SHT30;73331;48.168;20.776;2024-02-14T01:32:24;0.85;80.55
83405;SHT30;73331;48.168;20.776;2024-02-14T01:33:55;0.72;81.38
83405;SHT30;73331;48.168;20.776;2024-02-14T01:35:26;0.64;82.15
83405;SHT30;73331;48.168;20.776;2024-02-14T01:36:57;0.61;82.24
83405;SHT30;73331;48.168;20.776;2024-02-14T01:38:27;0.74;81.96
83405;SHT30;73331;48.168;20.776;2024-02-14T01:39:58;0.75;81.67
83405;SHT30;73331;48.168;20.776;2024-02-14T01:41:29;0.84;81.53
83405;SHT30;73331;48.168;20.776;2024-02-14T01:42:59;0.77;81.46
83405;SHT30;73331;48.168;20.776;2024-02-14T01:44:31;0.60;81.99
83405;SHT30;73331;48.168;20.776;2024-02-14T01:46:05;1.23;80.26
83405;SHT30;73331;48.168;20.776;2024-02-14T01:47:36;1.53;78.05
83405;SHT30;73331;48.168;20.776;2024-02-14T01:49:08;1.40;77.63
83405;SHT30;73331;48.168;20.776;2024-02-14T01:50:39;1.36;78.19
83405;SHT30;73331;48.168;20.776;2024-02-14T01:52:11;0.95;79.71
83405;SHT30;73331;48.168;20.776;2024-02-14T01:53:42;1.26;79.17
83405;SHT30;73331;48.168;20.776;2024-02-14T01:55:13;1.29;78.81
83405;SHT30;73331;48.168;20.776;2024-02-14T01:56:44;1.26;78.75
83405;SHT30;73331;48.168;20.776;2024-02-14T01:58:15;0.88;79.98
83405;SHT30;73331;48.168;20.776;2024-02-14T01:59:46;1.01;80.27
83405;SHT30;73331;48.168;20.776;2024-02-14T02:01:17;1.15;79.85
83405;SHT30;73331;48.168;20.776;2024-02-14T02:02:48;1.08;79.57
83405;SHT30;73331;48.168;20.776;2024-02-14T02:04:19;1.57;77.45
83405;SHT30;73331;48.168;20.776;2024-02-14T02:05:49;0.93;80.05
83405;SHT30;73331;48.168;20.776;2024-02-14T02:07:20;0.77;81.04
83405;SHT30;73331;48.168;20.776;2024-02-14T02:08:50;0.65;81.84
83405;SHT30;73331;48.168;20.776;2024-02-14T02:10:21;1.38;78.89
83405;SHT30;73331;48.168;20.776;2024-02-14T02:11:52;1.59;78.63
83405;SHT30;73331;48.168;20.776;2024-02-14T02:13:30;1.42;78.13
83405;SHT30;73331;48.168;20.776;2024-02-14T02:15:01;0.82;81.14
83405;SHT30;73331;48.168;20.776;2024-02-14T02:16:32;0.78;81.25
83405;SHT30;73331;48.168;20.776;2024-02-14T02:18:04;0.53;82.17
83405;SHT30;73331;48.168;20.776;2024-02-14T02:19:38;0.51;82.66
83405;SHT30;73331;48.168;20.776;2024-02-14T02:21:08;0.43;83.20
83405;SHT30;73331;48.168;20.776;2024-02-14T02:22:45;0.46;83.55
83405;SHT30;73331;48.168;20.776;2024-02-14T02:24:15;0.77;83.10
83405;SHT30;73331;48.168;20.776;2024-02-14T02:25:46;0.65;82.61
83405;SHT30;73331;48.168;20.776;2024-02-14T02:27:16;0.46;83.11
83405;SHT30;73331;48.168;20.776;2024-02-14T02:28:47;0.33;83.53
83405;SHT30;73331;48.168;20.776;2024-02-14T02:30:18;0.23;84.01
83405;SHT30;73331;48.168;20.776;2024-02-14T02:31:48;0.14;84.22
83405;SHT30;73331;48.168;20.776;2024-02-14T02:33:19;0.14;84.12
83405;SHT30;73331;48.168;20.776;2024-02-14T02:34:49;0.16;84.22
83405;SHT30;73331;48.168;20.776;2024-02-14T02:36:20;0.14;84.41
83405;SHT30;73331;48.168;20.776;2024-02-14T02:37:50;0.18;84.88
83405;SHT30;73331;48.168;20.776;2024-02-14T02:39:21;0.64;83.00
83405;SHT30;73331;48.168;20.776;2024-02-14T02:40:51;0.51;83.18
83405;SHT30;73331;48.168;20.776;2024-02-14T02:42:22;0.37;83.83
83405;SHT30;73331;48.168;20.776;2024-02-14T02:43:52;1.11;81.97
83405;SHT30;73331;48.168;20.776;2024-02-14T02:45:24;1.38;80.89
83405;SHT30;73331;48.168;20.776;2024-02-14T02:46:55;1.56;79.38
83405;SHT30;73331;48.168;20.776;2024-02-14T02:48:26;1.43;79.08
83405;SHT30;73331;48.168;20.776;2024-02-14T02:49:56;1.28;80.15
83405;SHT30;73331;48.168;20.776;2024-02-14T02:51:27;1.06;79.55
83405;SHT30;73331;48.168;20.776;2024-02-14T02:52:58;1.22;79.38
83405;SHT30;73331;48.168;20.776;2024-02-14T02:54:28;1.49;78.06
83405;SHT30;73331;48.168;20.776;2024-02-14T02:55:59;1.49;78.19
83405;SHT30;73331;48.168;20.776;2024-02-14T02:57:30;1.53;78.48
83405;SHT30;73331;48.168;20.776;2024-02-14T02:59:02;0.95;79.80
83405;SHT30;73331;48.168;20.776;2024-02-14T03:00:33;1.06;80.61
83405;SHT30;73331;48.168;20.776;2024-02-14T03:02:04;1.12;79.93
83405;SHT30;73331;48.168;20.776;2024-02-14T03:03:38;1.13;79.97
83405;SHT30;73331;48.168;20.776;2024-02-14T03:05:10;0.80;80.45
83405;SHT30;73331;48.168;20.776;2024-02-14T03:06:47;0.27;82.94
83405;SHT30;73331;48.168;20.776;2024-02-14T03:08:18;0.07;84.19
83405;SHT30;73331;48.168;20.776;2024-02-14T03:09:49;0.00;84.65
83405;SHT30;73331;48.168;20.776;2024-02-14T03:11:21;-0.03;85.14
83405;SHT30;73331;48.168;20.776;2024-02-14T03:12:51;0.60;82.12
83405;SHT30;73331;48.168;20.776;2024-02-14T03:14:22;0.10;84.17
83405;SHT30;73331;48.168;20.776;2024-02-14T03:15:52;-0.10;85.38
83405;SHT30;73331;48.168;20.776;2024-02-14T03:17:23;0.65;82.99
83405;SHT30;73331;48.168;20.776;2024-02-14T03:18:54;0.46;82.64
83405;SHT30;73331;48.168;20.776;2024-02-14T03:20:24;0.03;84.63
83405;SHT30;73331;48.168;20.776;2024-02-14T03:21:55;-0.11;85.79
83405;SHT30;73331;48.168;20.776;2024-02-14T03:23:26;0.11;84.62
83405;SHT30;73331;48.168;20.776;2024-02-14T03:24:58;-0.04;84.97
83405;SHT30;73331;48.168;20.776;2024-02-14T03:26:28;-0.08;85.81
83405;SHT30;73331;48.168;20.776;2024-02-14T03:27:59;0.54;83.00
83405;SHT30;73331;48.168;20.776;2024-02-14T03:29:29;0.05;84.24
83405;SHT30;73331;48.168;20.776;2024-02-14T03:31:00;-0.18;85.38
83405;SHT30;73331;48.168;20.776;2024-02-14T03:32:30;-0.38;86.13
83405;SHT30;73331;48.168;20.776;2024-02-14T03:34:01;-0.41;86.56
83405;SHT30;73331;48.168;20.776;2024-02-14T03:35:32;-0.37;86.56
83405;SHT30;73331;48.168;20.776;2024-02-14T03:37:04;-0.38;86.38
83405;SHT30;73331;48.168;20.776;2024-02-14T03:38:37;-0.38;86.41
83405;SHT30;73331;48.168;20.776;2024-02-14T03:40:10;-0.22;86.06
83405;SHT30;73331;48.168;20.776;2024-02-14T03:41:41;-0.22;85.79
83405;SHT30;73331;48.168;20.776;2024-02-14T03:43:11;-0.27;86.05
83405;SHT30;73331;48.168;20.776;2024-02-14T03:44:42;-0.27;86.04
83405;SHT30;73331;48.168;20.776;2024-02-14T03:46:13;-0.32;86.23
83405;SHT30;73331;48.168;20.776;2024-02-14T03:47:44;-0.48;86.31
83405;SHT30;73331;48.168;20.776;2024-02-14T03:49:14;-0.52;86.56
83405;SHT30;73331;48.168;20.776;2024-02-14T03:50:45;-0.48;86.11
83405;SHT30;73331;48.168;20.776;2024-02-14T03:52:15;-0.51;86.21
83405;SHT30;73331;48.168;20.776;2024-02-14T03:53:46;-0.49;86.53
83405;SHT30;73331;48.168;20.776;2024-02-14T03:55:16;-0.44;86.29
83405;SHT30;73331;48.168;20.776;2024-02-14T03:56:49;-0.32;86.07
83405;SHT30;73331;48.168;20.776;2024-02-14T03:58:19;-0.38;86.11
83405;SHT30;73331;48.168;20.776;2024-02-14T03:59:54;-0.42;86.35
83405;SHT30;73331;48.168;20.776;2024-02-14T04:01:26;-0.41;86.54
83405;SHT30;73331;48.168;20.776;2024-02-14T04:02:57;-0.38;86.49
83405;SHT30;73331;48.168;20.776;2024-02-14T04:04:30;-0.39;86.38
83405;SHT30;73331;48.168;20.776;2024-02-14T04:06:01;-0.32;86.49
83405;SHT30;73331;48.168;20.776;2024-02-14T04:07:31;-0.37;86.15
83405;SHT30;73331;48.168;20.776;2024-02-14T04:09:02;-0.39;86.18
83405;SHT30;73331;48.168;20.776;2024-02-14T04:10:32;-0.38;86.14
83405;SHT30;73331;48.168;20.776;2024-02-14T04:12:03;-0.37;86.07
83405;SHT30;73331;48.168;20.776;2024-02-14T04:13:34;-0.37;85.96
83405;SHT30;73331;48.168;20.776;2024-02-14T04:15:05;-0.41;86.29
83405;SHT30;73331;48.168;20.776;2024-02-14T04:16:35;-0.39;86.35
83405;SHT30;73331;48.168;20.776;2024-02-14T04:18:06;-0.42;86.55
83405;SHT30;73331;48.168;20.776;2024-02-14T04:19:37;-0.35;86.47
83405;SHT30;73331;48.168;20.776;2024-02-14T04:21:08;-0.42;86.58
83405;SHT30;73331;48.168;20.776;2024-02-14T04:22:38;-0.45;86.62
83405;SHT30;73331;48.168;20.776;2024-02-14T04:24:09;-0.44;86.33
83405;SHT30;73331;48.168;20.776;2024-02-14T04:25:40;-0.47;86.45
83405;SHT30;73331;48.168;20.776;2024-02-14T04:27:11;-0.49;86.48
83405;SHT30;73331;48.168;20.776;2024-02-14T04:28:41;-0.38;86.02
83405;SHT30;73331;48.168;20.776;2024-02-14T04:30:12;-0.41;85.86
83405;SHT30;73331;48.168;20.776;2024-02-14T04:31:43;-0.47;86.00
83405;SHT30;73331;48.168;20.776;2024-02-14T04:33:14;0.14;84.37
83405;SHT30;73331;48.168;20.776;2024-02-14T04:34:45;0.61;81.83
83405;SHT30;73331;48.168;20.776;2024-02-14T04:36:15;0.50;81.67
83405;SHT30;73331;48.168;20.776;2024-02-14T04:37:46;0.65;82.06
83405;SHT30;73331;48.168;20.776;2024-02-14T04:39:18;0.46;82.17
83405;SHT30;73331;48.168;20.776;2024-02-14T04:40:49;0.84;81.06
83405;SHT30;73331;48.168;20.776;2024-02-14T04:42:19;0.51;81.22
83405;SHT30;73331;48.168;20.776;2024-02-14T04:43:50;0.10;82.92
83405;SHT30;73331;48.168;20.776;2024-02-14T04:45:20;0.36;83.01
83405;SHT30;73331;48.168;20.776;2024-02-14T04:46:51;0.06;82.96
83405;SHT30;73331;48.168;20.776;2024-02-14T04:48:21;-0.28;84.68
83405;SHT30;73331;48.168;20.776;2024-02-14T04:49:52;0.03;84.62
83405;SHT30;73331;48.168;20.776;2024-02-14T04:51:23;0.14;83.38
83405;SHT30;73331;48.168;20.776;2024-02-14T04:52:53;0.26;82.56
83405;SHT30;73331;48.168;20.776;2024-02-14T04:54:24;-0.22;84.28
83405;SHT30;73331;48.168;20.776;2024-02-14T04:55:56;-0.48;85.27
83405;SHT30;73331;48.168;20.776;2024-02-14T04:57:26;-0.58;86.13
83405;SHT30;73331;48.168;20.776;2024-02-14T04:58:57;-0.59;86.43
83405;SHT30;73331;48.168;20.776;2024-02-14T05:00:28;-0.57;86.21
83405;SHT30;73331;48.168;20.776;2024-02-14T05:01:58;-0.41;86.10
83405;SHT30;73331;48.168;20.776;2024-02-14T05:03:29;-0.45;85.99
83405;SHT30;73331;48.168;20.776;2024-02-14T05:05:00;-0.58;86.23
83405;SHT30;73331;48.168;20.776;2024-02-14T05:06:32;-0.66;86.50
83405;SHT30;73331;48.168;20.776;2024-02-14T05:08:03;-0.65;86.78
83405;SHT30;73331;48.168;20.776;2024-02-14T05:09:33;-0.59;86.28
83405;SHT30;73331;48.168;20.776;2024-02-14T05:11:04;-0.61;86.12
83405;SHT30;73331;48.168;20.776;2024-02-14T05:12:34;-0.66;86.37
83405;SHT30;73331;48.168;20.776;2024-02-14T05:14:05;-0.70;86.63
83405;SHT30;73331;48.168;20.776;2024-02-14T05:15:35;-0.76;86.95
83405;SHT30;73331;48.168;20.776;2024-02-14T05:17:07;-0.82;86.92
83405;SHT30;73331;48.168;20.776;2024-02-14T05:18:38;-0.89;87.09
83405;SHT30;73331;48.168;20.776;2024-02-14T05:20:09;-0.90;87.23
83405;SHT30;73331;48.168;20.776;2024-02-14T05:21:39;-0.51;86.32
83405;SHT30;73331;48.168;20.776;2024-02-14T05:23:10;-0.70;85.98
83405;SHT30;73331;48.168;20.776;2024-02-14T05:24:41;-0.52;85.40
83405;SHT30;73331;48.168;20.776;2024-02-14T05:26:11;-0.27;84.99
83405;SHT30;73331;48.168;20.776;2024-02-14T05:27:42;0.10;83.46
83405;SHT30;73331;48.168;20.776;2024-02-14T05:29:13;0.38;81.64
83405;SHT30;73331;48.168;20.776;2024-02-14T05:30:44;0.50;80.96
83405;SHT30;73331;48.168;20.776;2024-02-14T05:32:15;0.61;80.53
83405;SHT30;73331;48.168;20.776;2024-02-14T05:33:45;0.43;80.59
83405;SHT30;73331;48.168;20.776;2024-02-14T05:35:16;0.43;81.50
83405;SHT30;73331;48.168;20.776;2024-02-14T05:36:46;0.40;81.49
83405;SHT30;73331;48.168;20.776;2024-02-14T05:38:17;0.26;81.75
83405;SHT30;73331;48.168;20.776;2024-02-14T05:39:51;-0.34;83.93
83405;SHT30;73331;48.168;20.776;2024-02-14T05:41:22;-0.68;85.71
83405;SHT30;73331;48.168;20.776;2024-02-14T05:42:53;-0.68;85.81
83405;SHT30;73331;48.168;20.776;2024-02-14T05:44:24;-0.68;86.40
83405;SHT30;73331;48.168;20.776;2024-02-14T05:45:57;-0.85;87.11
83405;SHT30;73331;48.168;20.776;2024-02-14T05:47:28;-0.86;87.39
83405;SHT30;73331;48.168;20.776;2024-02-14T05:48:58;-0.89;87.59
83405;SHT30;73331;48.168;20.776;2024-02-14T05:50:29;-0.90;87.43
83405;SHT30;73331;48.168;20.776;2024-02-14T05:51:59;-0.99;87.78
83405;SHT30;73331;48.168;20.776;2024-02-14T05:53:30;-0.99;87.84
83405;SHT30;73331;48.168;20.776;2024-02-14T05:55:00;-0.93;87.49
83405;SHT30;73331;48.168;20.776;2024-02-14T05:56:31;-0.80;86.71
83405;SHT30;73331;48.168;20.776;2024-02-14T05:58:02;-0.75;86.18
83405;SHT30;73331;48.168;20.776;2024-02-14T05:59:32;-0.80;85.58
83405;SHT30;73331;48.168;20.776;2024-02-14T06:01:03;-0.75;85.69
83405;SHT30;73331;48.168;20.776;2024-02-14T06:02:33;-0.66;85.91
83405;SHT30;73331;48.168;20.776;2024-02-14T06:04:04;-0.69;86.43
83405;SHT30;73331;48.168;20.776;2024-02-14T06:05:34;-0.78;86.44
83405;SHT30;73331;48.168;20.776;2024-02-14T06:07:05;-0.78;86.34
83405;SHT30;73331;48.168;20.776;2024-02-14T06:08:37;-0.51;85.98
83405;SHT30;73331;48.168;20.776;2024-02-14T06:10:08;0.16;83.24
83405;SHT30;73331;48.168;20.776;2024-02-14T06:11:38;0.26;82.15
83405;SHT30;73331;48.168;20.776;2024-02-14T06:13:09;0.36;82.20
83405;SHT30;73331;48.168;20.776;2024-02-14T06:14:39;0.46;82.12
83405;SHT30;73331;48.168;20.776;2024-02-14T06:16:10;0.40;81.13
83405;SHT30;73331;48.168;20.776;2024-02-14T06:17:41;0.71;80.45
83405;SHT30;73331;48.168;20.776;2024-02-14T06:19:13;0.95;79.48
83405;SHT30;73331;48.168;20.776;2024-02-14T06:20:43;1.13;78.87
83405;SHT30;73331;48.168;20.776;2024-02-14T06:22:14;1.36;78.24
83405;SHT30;73331;48.168;20.776;2024-02-14T06:23:44;1.36;77.18
83405;SHT30;73331;48.168;20.776;2024-02-14T06:25:17;1.23;77.90
83405;SHT30;73331;48.168;20.776;2024-02-14T06:26:47;1.94;75.59
83405;SHT30;73331;48.168;20.776;2024-02-14T06:28:18;1.67;75.78
83405;SHT30;73331;48.168;20.776;2024-02-14T06:29:48;1.83;74.46
83405;SHT30;73331;48.168;20.776;2024-02-14T06:31:19;1.91;74.54
83405;SHT30;73331;48.168;20.776;2024-02-14T06:32:49;2.68;72.14
83405;SHT30;73331;48.168;20.776;2024-02-14T06:34:20;1.94;73.72
83405;SHT30;73331;48.168;20.776;2024-02-14T06:35:50;2.17;73.28
83405;SHT30;73331;48.168;20.776;2024-02-14T06:37:21;2.32;73.19
83405;SHT30;73331;48.168;20.776;2024-02-14T06:38:51;2.53;72.84
83405;SHT30;73331;48.168;20.776;2024-02-14T06:40:22;2.34;72.75
83405;SHT30;73331;48.168;20.776;2024-02-14T06:41:53;2.15;74.10
83405;SHT30;73331;48.168;20.776;2024-02-14T06:43:23;3.22;71.50
83405;SHT30;73331;48.168;20.776;2024-02-14T06:44:54;2.65;72.48
83405;SHT30;73331;48.168;20.776;2024-02-14T06:46:24;2.99;71.36
83405;SHT30;73331;48.168;20.776;2024-02-14T06:47:55;2.86;72.12
83405;SHT30;73331;48.168;20.776;2024-02-14T06:49:25;3.13;71.50
83405;SHT30;73331;48.168;20.776;2024-02-14T06:50:56;2.81;72.12
83405;SHT30;73331;48.168;20.776;2024-02-14T06:52:27;2.71;72.75
83405;SHT30;73331;48.168;20.776;2024-02-14T06:53:57;2.79;72.41
83405;SHT30;73331;48.168;20.776;2024-02-14T06:55:28;3.24;71.52
83405;SHT30;73331;48.168;20.776;2024-02-14T06:57:00;3.38;71.05
83405;SHT30;73331;48.168;20.776;2024-02-14T06:58:31;3.46;70.62
83405;SHT30;73331;48.168;20.776;2024-02-14T07:00:03;3.71;69.46
83405;SHT30;73331;48.168;20.776;2024-02-14T07:01:36;4.13;68.70
83405;SHT30;73331;48.168;20.776;2024-02-14T07:03:06;4.60;67.46
83405;SHT30;73331;48.168;20.776;2024-02-14T07:04:37;4.69;67.23
83405;SHT30;73331;48.168;20.776;2024-02-14T07:06:08;4.53;66.02
83405;SHT30;73331;48.168;20.776;2024-02-14T07:07:38;3.58;70.07
83405;SHT30;73331;48.168;20.776;2024-02-14T07:09:09;4.30;68.20
83405;SHT30;73331;48.168;20.776;2024-02-14T07:10:40;4.12;68.48
83405;SHT30;73331;48.168;20.776;2024-02-14T07:12:10;3.95;69.05
83405;SHT30;73331;48.168;20.776;2024-02-14T07:13:41;3.84;69.50
83405;SHT30;73331;48.168;20.776;2024-02-14T07:15:11;3.82;70.15
83405;SHT30;73331;48.168;20.776;2024-02-14T07:16:42;4.19;70.16
83405;SHT30;73331;48.168;20.776;2024-02-14T07:18:13;3.82;70.07
83405;SHT30;73331;48.168;20.776;2024-02-14T07:19:43;3.89;69.88
83405;SHT30;73331;48.168;20.776;2024-02-14T07:21:18;4.16;69.50
83405;SHT30;73331;48.168;20.776;2024-02-14T07:22:48;4.16;69.19
83405;SHT30;73331;48.168;20.776;2024-02-14T07:24:23;4.33;69.45
83405;SHT30;73331;48.168;20.776;2024-02-14T07:25:53;4.26;69.62
83405;SHT30;73331;48.168;20.776;2024-02-14T07:27:24;4.35;69.58
83405;SHT30;73331;48.168;20.776;2024-02-14T07:28:55;4.56;68.34
83405;SHT30;73331;48.168;20.776;2024-02-14T07:30:25;5.04;67.88
83405;SHT30;73331;48.168;20.776;2024-02-14T07:31:56;5.31;66.07
83405;SHT30;73331;48.168;20.776;2024-02-14T07:33:29;5.07;66.09
83405;SHT30;73331;48.168;20.776;2024-02-14T07:34:59;4.83;67.11
83405;SHT30;73331;48.168;20.776;2024-02-14T07:36:30;5.23;67.14
83405;SHT30;73331;48.168;20.776;2024-02-14T07:38:00;5.38;65.81
83405;SHT30;73331;48.168;20.776;2024-02-14T07:39:31;5.45;65.61
83405;SHT30;73331;48.168;20.776;2024-02-14T07:41:01;5.56;65.64
83405;SHT30;73331;48.168;20.776;2024-02-14T07:42:32;5.34;66.53
83405;SHT30;73331;48.168;20.776;2024-02-14T07:44:03;5.48;66.14
83405;SHT30;73331;48.168;20.776;2024-02-14T07:45:34;5.49;66.46
83405;SHT30;73331;48.168;20.776;2024-02-14T07:47:05;5.55;66.54
83405;SHT30;73331;48.168;20.776;2024-02-14T07:48:35;5.69;65.99
83405;SHT30;73331;48.168;20.776;2024-02-14T07:50:09;5.47;66.43
83405;SHT30;73331;48.168;20.776;2024-02-14T07:51:39;5.88;66.13
83405;SHT30;73331;48.168;20.776;2024-02-14T07:53:10;6.03;65.43
83405;SHT30;73331;48.168;20.776;2024-02-14T07:54:41;6.33;65.00
83405;SHT30;73331;48.168;20.776;2024-02-14T07:56:11;6.54;63.59
83405;SHT30;73331;48.168;20.776;2024-02-14T07:57:42;5.75;66.34
83405;SHT30;73331;48.168;20.776;2024-02-14T07:59:13;5.70;66.02
83405;SHT30;73331;48.168;20.776;2024-02-14T08:00:43;5.98;66.07
83405;SHT30;73331;48.168;20.776;2024-02-14T08:02:14;6.05;65.82
83405;SHT30;73331;48.168;20.776;2024-02-14T08:03:44;6.30;65.02
83405;SHT30;73331;48.168;20.776;2024-02-14T08:05:16;5.93;66.52
83405;SHT30;73331;48.168;20.776;2024-02-14T08:06:47;5.69;67.33
83405;SHT30;73331;48.168;20.776;2024-02-14T08:08:20;6.47;66.07
83405;SHT30;73331;48.168;20.776;2024-02-14T08:09:51;6.80;64.14
83405;SHT30;73331;48.168;20.776;2024-02-14T08:11:22;7.16;63.27
83405;SHT30;73331;48.168;20.776;2024-02-14T08:12:52;7.29;62.83
83405;SHT30;73331;48.168;20.776;2024-02-14T08:14:23;6.98;62.98
83405;SHT30;73331;48.168;20.776;2024-02-14T08:15:53;6.83;63.50
83405;SHT30;73331;48.168;20.776;2024-02-14T08:17:24;6.70;64.73
83405;SHT30;73331;48.168;20.776;2024-02-14T08:18:54;6.60;64.81
83405;SHT30;73331;48.168;20.776;2024-02-14T08:20:29;5.98;66.96
83405;SHT30;73331;48.168;20.776;2024-02-14T08:21:59;5.93;67.68
83405;SHT30;73331;48.168;20.776;2024-02-14T08:23:32;5.55;69.32
83405;SHT30;73331;48.168;20.776;2024-02-14T08:25:03;5.60;70.13
83405;SHT30;73331;48.168;20.776;2024-02-14T08:26:33;6.07;68.74
83405;SHT30;73331;48.168;20.776;2024-02-14T08:28:04;6.51;65.93
83405;SHT30;73331;48.168;20.776;2024-02-14T08:29:35;6.53;65.00
83405;SHT30;73331;48.168;20.776;2024-02-14T08:31:11;6.68;66.31
83405;SHT30;73331;48.168;20.776;2024-02-14T08:32:42;6.83;65.43
83405;SHT30;73331;48.168;20.776;2024-02-14T08:34:13;7.04;64.86
83405;SHT30;73331;48.168;20.776;2024-02-14T08:35:43;7.20;64.83
83405;SHT30;73331;48.168;20.776;2024-02-14T08:37:14;7.22;64.55
83405;SHT30;73331;48.168;20.776;2024-02-14T08:38:44;7.53;64.16
83405;SHT30;73331;48.168;20.776;2024-02-14T08:40:15;7.83;63.08
83405;SHT30;73331;48.168;20.776;2024-02-14T08:41:45;8.15;61.45
83405;SHT30;73331;48.168;20.776;2024-02-14T08:43:17;8.55;60.45
83405;SHT30;73331;48.168;20.776;2024-02-14T08:44:47;8.30;61.30
83405;SHT30;73331;48.168;20.776;2024-02-14T08:46:19;8.35;62.09
83405;SHT30;73331;48.168;20.776;2024-02-14T08:47:49;9.09;57.93
83405;SHT30;73331;48.168;20.776;2024-02-14T08:49:20;9.27;56.70
83405;SHT30;73331;48.168;20.776;2024-02-14T08:50:50;9.61;55.13
83405;SHT30;73331;48.168;20.776;2024-02-14T08:52:21;9.81;54.33
83405;SHT30;73331;48.168;20.776;2024-02-14T08:53:52;10.25;53.55
83405;SHT30;73331;48.168;20.776;2024-02-14T08:55:25;10.01;54.20
83405;SHT30;73331;48.168;20.776;2024-02-14T08:56:56;9.46;52.74
83405;SHT30;73331;48.168;20.776;2024-02-14T08:58:28;8.49;55.34
83405;SHT30;73331;48.168;20.776;2024-02-14T08:59:59;7.83;58.39
83405;SHT30;73331;48.168;20.776;2024-02-14T09:01:31;7.46;59.38
83405;SHT30;73331;48.168;20.776;2024-02-14T09:03:03;7.33;61.19
83405;SHT30;73331;48.168;20.776;2024-02-14T09:04:33;7.81;55.69
83405;SHT30;73331;48.168;20.776;2024-02-14T09:06:04;7.74;57.85
83405;SHT30;73331;48.168;20.776;2024-02-14T09:07:34;7.45;57.02
83405;SHT30;73331;48.168;20.776;2024-02-14T09:09:07;7.36;55.54
83405;SHT30;73331;48.168;20.776;2024-02-14T09:10:40;7.23;55.75
83405;SHT30;73331;48.168;20.776;2024-02-14T09:12:10;7.38;55.26
83405;SHT30;73331;48.168;20.776;2024-02-14T09:13:41;7.09;52.88
83405;SHT30;73331;48.168;20.776;2024-02-14T09:15:12;7.20;53.82
83405;SHT30;73331;48.168;20.776;2024-02-14T09:16:43;7.09;52.40
83405;SHT30;73331;48.168;20.776;2024-02-14T09:18:16;7.36;52.10
83405;SHT30;73331;48.168;20.776;2024-02-14T09:19:49;7.33;51.26
83405;SHT30;73331;48.168;20.776;2024-02-14T09:21:20;7.45;52.53
83405;SHT30;73331;48.168;20.776;2024-02-14T09:22:50;7.33;52.45
83405;SHT30;73331;48.168;20.776;2024-02-14T09:24:21;7.29;52.07
83405;SHT30;73331;48.168;20.776;2024-02-14T09:25:52;7.50;51.46
83405;SHT30;73331;48.168;20.776;2024-02-14T09:27:22;7.43;51.98
83405;SHT30;73331;48.168;20.776;2024-02-14T09:28:53;7.43;53.74
83405;SHT30;73331;48.168;20.776;2024-02-14T09:30:23;7.52;52.69
83405;SHT30;73331;48.168;20.776;2024-02-14T09:31:54;7.50;52.68